Mesa Verde Natl Park, Colorado
Current Conditions -  °F | °C
As of 10:53 PM on Wednesday 26 Nov 2014 (Local Time) from KCEZ Reporting Station
Clear Clear  
Wind Chill: 17°   Ceiling: Unl
Heat Index: 26°   Visibility: 10mi
Dew Point: 19°   Wind: 9mph
Humidity: 75%   Direction: 60°ENE
Pressure: 30.47"   Gusts: NA
Location:  37.22°N, 108.5°W
Report Text: KCEZ 270553Z AUTO 06008KT 10SM CLR M03/M07 A3047 RMK AO2 SLP307 T10331072 10083 21039 53011
Loading
Personal Weather Stations






























Interactive Weather Map New forecast layout! Learn more

10-Day Weather Forecast

Advertisements
Track Severe Weather on mobile